sensor_id;sensor_type;location;lat;lon;timestamp;temperature;humidity
22852;DHT22;11592;45.460;9.240;2023-03-21T00:00:41;12.30;99.90
22852;DHT22;11592;45.460;9.240;2023-03-21T00:03:07;12.20;99.90
22852;DHT22;11592;45.460;9.240;2023-03-21T00:05:41;12.40;99.90
22852;DHT22;11592;45.460;9.240;2023-03-21T00:08:15;12.20;99.90
22852;DHT22;11592;45.460;9.240;2023-03-21T00:10:42;12.20;99.90
22852;DHT22;11592;45.460;9.240;2023-03-21T00:13:14;12.20;99.90
22852;DHT22;11592;45.460;9.240;2023-03-21T00:15:41;12.20;99.90
22852;DHT22;11592;45.460;9.240;2023-03-21T00:18:41;12.30;99.90
22852;DHT22;11592;45.460;9.240;2023-03-21T00:21:11;12.10;99.90
22852;DHT22;11592;45.460;9.240;2023-03-21T00:23:59;12.10;99.90
22852;DHT22;11592;45.460;9.240;2023-03-21T00:26:26;12.00;99.90
22852;DHT22;11592;45.460;9.240;2023-03-21T00:28:53;12.00;99.90
22852;DHT22;11592;45.460;9.240;2023-03-21T00:31:20;12.00;99.90
22852;DHT22;11592;45.460;9.240;2023-03-21T00:33:47;12.00;99.90
22852;DHT22;11592;45.460;9.240;2023-03-21T00:36:14;11.90;99.90
22852;DHT22;11592;45.460;9.240;2023-03-21T00:38:41;11.80;99.90
22852;DHT22;11592;45.460;9.240;2023-03-21T00:41:11;11.80;99.90
22852;DHT22;11592;45.460;9.240;2023-03-21T00:43:57;12.10;99.90
22852;DHT22;11592;45.460;9.240;2023-03-21T00:46:23;11.80;99.90
22852;DHT22;11592;45.460;9.240;2023-03-21T00:48:55;11.80;99.90
22852;DHT22;11592;45.460;9.240;2023-03-21T00:51:23;11.80;99.90
22852;DHT22;11592;45.460;9.240;2023-03-21T00:53:54;11.80;99.90
22852;DHT22;11592;45.460;9.240;2023-03-21T00:56:21;11.80;99.90
22852;DHT22;11592;45.460;9.240;2023-03-21T00:58:49;11.80;99.90
22852;DHT22;11592;45.460;9.240;2023-03-21T01:01:17;11.80;99.90
22852;DHT22;11592;45.460;9.240;2023-03-21T01:03:44;11.80;99.90
22852;DHT22;11592;45.460;9.240;2023-03-21T01:06:13;11.80;99.90
22852;DHT22;11592;45.460;9.240;2023-03-21T01:08:46;11.70;99.90
22852;DHT22;11592;45.460;9.240;2023-03-21T01:11:20;11.70;99.90
22852;DHT22;11592;45.460;9.240;2023-03-21T01:13:48;11.60;99.90
22852;DHT22;11592;45.460;9.240;2023-03-21T01:16:35;11.60;99.90
22852;DHT22;11592;45.460;9.240;2023-03-21T01:19:04;11.50;99.90
22852;DHT22;11592;45.460;9.240;2023-03-21T01:21:40;11.50;99.90
22852;DHT22;11592;45.460;9.240;2023-03-21T01:24:07;11.60;99.90
22852;DHT22;11592;45.460;9.240;2023-03-21T01:26:34;11.50;99.90
22852;DHT22;11592;45.460;9.240;2023-03-21T01:29:04;11.30;99.90
22852;DHT22;11592;45.460;9.240;2023-03-21T01:31:31;11.20;99.90
22852;DHT22;11592;45.460;9.240;2023-03-21T01:33:58;11.30;99.90
22852;DHT22;11592;45.460;9.240;2023-03-21T01:36:25;11.30;99.90
22852;DHT22;11592;45.460;9.240;2023-03-21T01:38:53;11.40;99.90
22852;DHT22;11592;45.460;9.240;2023-03-21T01:43:48;11.30;99.90
22852;DHT22;11592;45.460;9.240;2023-03-21T01:49:32;11.20;99.90
22852;DHT22;11592;45.460;9.240;2023-03-21T01:52:06;11.20;99.90
22852;DHT22;11592;45.460;9.240;2023-03-21T01:54:43;11.10;99.90
22852;DHT22;11592;45.460;9.240;2023-03-21T01:57:16;11.10;99.90
22852;DHT22;11592;45.460;9.240;2023-03-21T01:59:50;11.00;99.90
22852;DHT22;11592;45.460;9.240;2023-03-21T02:02:21;11.10;99.90
22852;DHT22;11592;45.460;9.240;2023-03-21T02:04:50;11.10;99.90
22852;DHT22;11592;45.460;9.240;2023-03-21T02:07:28;11.10;99.90
22852;DHT22;11592;45.460;9.240;2023-03-21T02:09:55;11.00;99.90
22852;DHT22;11592;45.460;9.240;2023-03-21T02:12:25;11.00;99.90
22852;DHT22;11592;45.460;9.240;2023-03-21T02:14:53;11.00;99.90
22852;DHT22;11592;45.460;9.240;2023-03-21T02:33:59;11.10;99.90
22852;DHT22;11592;45.460;9.240;2023-03-21T02:39:20;11.10;99.90
22852;DHT22;11592;45.460;9.240;2023-03-21T02:42:05;11.10;99.90
22852;DHT22;11592;45.460;9.240;2023-03-21T02:47:23;11.10;99.90
22852;DHT22;11592;45.460;9.240;2023-03-21T02:50:00;11.00;99.90
22852;DHT22;11592;45.460;9.240;2023-03-21T02:52:31;11.00;99.90
22852;DHT22;11592;45.460;9.240;2023-03-21T02:55:08;11.00;99.90
22852;DHT22;11592;45.460;9.240;2023-03-21T02:57:41;11.00;99.90
22852;DHT22;11592;45.460;9.240;2023-03-21T03:00:12;11.00;99.90
22852;DHT22;11592;45.460;9.240;2023-03-21T03:02:44;10.90;99.90
22852;DHT22;11592;45.460;9.240;2023-03-21T03:05:13;10.90;99.90
22852;DHT22;11592;45.460;9.240;2023-03-21T03:08:03;10.90;99.90
22852;DHT22;11592;45.460;9.240;2023-03-21T03:18:59;10.80;99.90
22852;DHT22;11592;45.460;9.240;2023-03-21T03:26:44;10.60;99.90
22852;DHT22;11592;45.460;9.240;2023-03-21T03:29:14;10.60;99.90
22852;DHT22;11592;45.460;9.240;2023-03-21T03:31:53;10.70;99.90
22852;DHT22;11592;45.460;9.240;2023-03-21T03:34:25;10.70;99.90
22852;DHT22;11592;45.460;9.240;2023-03-21T03:36:56;10.70;99.90
22852;DHT22;11592;45.460;9.240;2023-03-21T03:39:38;10.90;99.90
22852;DHT22;11592;45.460;9.240;2023-03-21T03:42:13;10.70;99.90
22852;DHT22;11592;45.460;9.240;2023-03-21T03:44:54;10.70;99.90
22852;DHT22;11592;45.460;9.240;2023-03-21T03:50:17;10.70;99.90
22852;DHT22;11592;45.460;9.240;2023-03-21T03:52:50;10.60;99.90
22852;DHT22;11592;45.460;9.240;2023-03-21T03:55:24;10.50;99.90
22852;DHT22;11592;45.460;9.240;2023-03-21T03:57:54;10.50;99.90
22852;DHT22;11592;45.460;9.240;2023-03-21T04:00:21;10.50;99.90
22852;DHT22;11592;45.460;9.240;2023-03-21T04:02:47;10.50;99.90
22852;DHT22;11592;45.460;9.240;2023-03-21T04:05:14;10.60;99.90
22852;DHT22;11592;45.460;9.240;2023-03-21T04:07:47;10.50;99.90
22852;DHT22;11592;45.460;9.240;2023-03-21T04:10:17;10.50;99.90
22852;DHT22;11592;45.460;9.240;2023-03-21T04:12:44;10.60;99.90
22852;DHT22;11592;45.460;9.240;2023-03-21T04:15:11;10.50;99.90
22852;DHT22;11592;45.460;9.240;2023-03-21T04:17:38;10.50;99.90
22852;DHT22;11592;45.460;9.240;2023-03-21T04:20:06;10.40;99.90
22852;DHT22;11592;45.460;9.240;2023-03-21T04:22:42;10.40;99.90
22852;DHT22;11592;45.460;9.240;2023-03-21T04:25:09;10.30;99.90
22852;DHT22;11592;45.460;9.240;2023-03-21T04:27:36;10.30;99.90
22852;DHT22;11592;45.460;9.240;2023-03-21T04:30:03;10.40;99.90
22852;DHT22;11592;45.460;9.240;2023-03-21T04:32:31;10.30;99.90
22852;DHT22;11592;45.460;9.240;2023-03-21T04:34:59;10.30;99.90
22852;DHT22;11592;45.460;9.240;2023-03-21T04:37:26;10.30;99.90
22852;DHT22;11592;45.460;9.240;2023-03-21T04:39:53;10.30;99.90
22852;DHT22;11592;45.460;9.240;2023-03-21T04:42:20;10.30;99.90
22852;DHT22;11592;45.460;9.240;2023-03-21T04:44:47;10.90;99.90
22852;DHT22;11592;45.460;9.240;2023-03-21T04:47:15;10.40;99.90
22852;DHT22;11592;45.460;9.240;2023-03-21T04:49:42;10.30;99.90
22852;DHT22;11592;45.460;9.240;2023-03-21T04:52:09;10.30;99.90
22852;DHT22;11592;45.460;9.240;2023-03-21T04:54:36;10.30;99.90
22852;DHT22;11592;45.460;9.240;2023-03-21T04:57:03;10.30;99.90
22852;DHT22;11592;45.460;9.240;2023-03-21T04:59:30;10.20;99.90
22852;DHT22;11592;45.460;9.240;2023-03-21T05:01:57;10.40;99.90
22852;DHT22;11592;45.460;9.240;2023-03-21T05:04:25;10.20;99.90
22852;DHT22;11592;45.460;9.240;2023-03-21T05:06:53;10.10;99.90
22852;DHT22;11592;45.460;9.240;2023-03-21T05:09:21;10.20;99.90
22852;DHT22;11592;45.460;9.240;2023-03-21T05:11:49;10.20;99.90
22852;DHT22;11592;45.460;9.240;2023-03-21T05:14:19;10.20;99.90
22852;DHT22;11592;45.460;9.240;2023-03-21T05:16:47;10.20;99.90
22852;DHT22;11592;45.460;9.240;2023-03-21T05:19:21;10.20;99.90
22852;DHT22;11592;45.460;9.240;2023-03-21T05:21:49;10.20;99.90
22852;DHT22;11592;45.460;9.240;2023-03-21T05:24:20;10.00;99.90
22852;DHT22;11592;45.460;9.240;2023-03-21T05:26:47;10.10;99.90
22852;DHT22;11592;45.460;9.240;2023-03-21T05:29:18;10.40;99.90
22852;DHT22;11592;45.460;9.240;2023-03-21T05:31:45;10.00;99.90
22852;DHT22;11592;45.460;9.240;2023-03-21T05:34:12;10.00;99.90
22852;DHT22;11592;45.460;9.240;2023-03-21T05:36:39;10.00;99.90
22852;DHT22;11592;45.460;9.240;2023-03-21T05:39:06;9.80;99.90
22852;DHT22;11592;45.460;9.240;2023-03-21T05:41:33;9.70;99.90
22852;DHT22;11592;45.460;9.240;2023-03-21T05:44:00;9.70;99.90
22852;DHT22;11592;45.460;9.240;2023-03-21T05:46:26;9.60;99.90
22852;DHT22;11592;45.460;9.240;2023-03-21T05:48:53;9.60;99.90
22852;DHT22;11592;45.460;9.240;2023-03-21T05:51:20;9.60;99.90
22852;DHT22;11592;45.460;9.240;2023-03-21T05:53:47;9.50;99.90
22852;DHT22;11592;45.460;9.240;2023-03-21T05:56:14;9.50;99.90
22852;DHT22;11592;45.460;9.240;2023-03-21T05:58:42;9.50;99.90
22852;DHT22;11592;45.460;9.240;2023-03-21T06:01:09;9.50;99.90
22852;DHT22;11592;45.460;9.240;2023-03-21T06:03:35;9.60;99.90
22852;DHT22;11592;45.460;9.240;2023-03-21T06:06:03;9.60;99.90
22852;DHT22;11592;45.460;9.240;2023-03-21T06:08:30;9.70;99.90
22852;DHT22;11592;45.460;9.240;2023-03-21T06:10:57;9.80;99.90
22852;DHT22;11592;45.460;9.240;2023-03-21T06:13:24;9.80;99.90
22852;DHT22;11592;45.460;9.240;2023-03-21T06:15:51;9.80;99.90
22852;DHT22;11592;45.460;9.240;2023-03-21T06:18:18;9.80;99.90
22852;DHT22;11592;45.460;9.240;2023-03-21T06:20:44;10.00;99.90
22852;DHT22;11592;45.460;9.240;2023-03-21T06:23:11;9.90;99.90
22852;DHT22;11592;45.460;9.240;2023-03-21T06:25:38;10.10;99.90
22852;DHT22;11592;45.460;9.240;2023-03-21T06:28:05;10.00;99.90
22852;DHT22;11592;45.460;9.240;2023-03-21T06:30:32;10.10;99.90
22852;DHT22;11592;45.460;9.240;2023-03-21T06:32:59;10.20;99.90
22852;DHT22;11592;45.460;9.240;2023-03-21T06:35:26;10.10;99.90
22852;DHT22;11592;45.460;9.240;2023-03-21T06:37:53;10.20;99.90
22852;DHT22;11592;45.460;9.240;2023-03-21T06:40:20;10.40;99.90
22852;DHT22;11592;45.460;9.240;2023-03-21T06:42:47;10.50;99.90
22852;DHT22;11592;45.460;9.240;2023-03-21T06:45:13;10.70;99.90
22852;DHT22;11592;45.460;9.240;2023-03-21T06:47:40;10.80;99.90
22852;DHT22;11592;45.460;9.240;2023-03-21T06:50:08;10.90;99.90
22852;DHT22;11592;45.460;9.240;2023-03-21T06:52:37;11.00;99.90
22852;DHT22;11592;45.460;9.240;2023-03-21T06:55:04;11.00;99.90
22852;DHT22;11592;45.460;9.240;2023-03-21T06:57:31;10.90;99.90
22852;DHT22;11592;45.460;9.240;2023-03-21T06:59:58;10.90;99.90
22852;DHT22;11592;45.460;9.240;2023-03-21T07:02:24;10.80;99.90
22852;DHT22;11592;45.460;9.240;2023-03-21T07:04:52;10.70;99.90
22852;DHT22;11592;45.460;9.240;2023-03-21T07:07:23;10.70;99.90
22852;DHT22;11592;45.460;9.240;2023-03-21T07:09:51;10.80;99.90
22852;DHT22;11592;45.460;9.240;2023-03-21T07:12:18;10.90;99.90
22852;DHT22;11592;45.460;9.240;2023-03-21T07:14:45;11.00;99.90
22852;DHT22;11592;45.460;9.240;2023-03-21T07:17:11;11.40;99.90
22852;DHT22;11592;45.460;9.240;2023-03-21T07:19:38;11.50;99.90
22852;DHT22;11592;45.460;9.240;2023-03-21T07:22:05;11.60;99.90
22852;DHT22;11592;45.460;9.240;2023-03-21T07:24:32;11.90;99.90
22852;DHT22;11592;45.460;9.240;2023-03-21T07:26:59;11.80;99.90
22852;DHT22;11592;45.460;9.240;2023-03-21T07:29:25;11.90;99.90
22852;DHT22;11592;45.460;9.240;2023-03-21T07:31:52;11.80;99.90
22852;DHT22;11592;45.460;9.240;2023-03-21T07:34:19;11.70;99.90
22852;DHT22;11592;45.460;9.240;2023-03-21T07:36:46;11.60;99.90
22852;DHT22;11592;45.460;9.240;2023-03-21T07:39:13;11.70;99.90
22852;DHT22;11592;45.460;9.240;2023-03-21T07:41:40;11.80;99.90
22852;DHT22;11592;45.460;9.240;2023-03-21T07:44:06;11.80;99.90
22852;DHT22;11592;45.460;9.240;2023-03-21T07:46:33;12.00;99.90
22852;DHT22;11592;45.460;9.240;2023-03-21T07:49:00;12.00;99.90
22852;DHT22;11592;45.460;9.240;2023-03-21T07:51:27;12.00;99.90
22852;DHT22;11592;45.460;9.240;2023-03-21T07:53:53;11.90;99.90
22852;DHT22;11592;45.460;9.240;2023-03-21T07:56:20;11.90;99.90
22852;DHT22;11592;45.460;9.240;2023-03-21T07:58:47;12.20;99.90
22852;DHT22;11592;45.460;9.240;2023-03-21T08:01:14;12.40;99.90
22852;DHT22;11592;45.460;9.240;2023-03-21T08:03:41;12.50;99.90
22852;DHT22;11592;45.460;9.240;2023-03-21T08:06:09;12.60;99.90
22852;DHT22;11592;45.460;9.240;2023-03-21T08:08:36;12.50;99.90
22852;DHT22;11592;45.460;9.240;2023-03-21T08:11:03;12.50;99.90
22852;DHT22;11592;45.460;9.240;2023-03-21T08:13:31;12.60;99.90
22852;DHT22;11592;45.460;9.240;2023-03-21T08:15:58;12.70;99.90
22852;DHT22;11592;45.460;9.240;2023-03-21T08:18:25;12.70;99.90
22852;DHT22;11592;45.460;9.240;2023-03-21T08:20:54;12.80;99.90
22852;DHT22;11592;45.460;9.240;2023-03-21T08:23:21;13.00;99.90
22852;DHT22;11592;45.460;9.240;2023-03-21T08:25:55;13.20;99.90
22852;DHT22;11592;45.460;9.240;2023-03-21T08:28:22;13.30;99.90
22852;DHT22;11592;45.460;9.240;2023-03-21T08:30:49;13.40;99.90
22852;DHT22;11592;45.460;9.240;2023-03-21T08:33:16;13.30;99.90
22852;DHT22;11592;45.460;9.240;2023-03-21T08:35:44;13.30;99.90
22852;DHT22;11592;45.460;9.240;2023-03-21T08:38:12;13.30;99.90
22852;DHT22;11592;45.460;9.240;2023-03-21T08:40:39;13.30;99.90
22852;DHT22;11592;45.460;9.240;2023-03-21T08:43:07;13.50;99.90
22852;DHT22;11592;45.460;9.240;2023-03-21T08:45:33;13.60;99.90
22852;DHT22;11592;45.460;9.240;2023-03-21T08:48:00;13.80;99.90
22852;DHT22;11592;45.460;9.240;2023-03-21T08:50:27;14.00;99.90
22852;DHT22;11592;45.460;9.240;2023-03-21T08:52:57;14.20;99.90
22852;DHT22;11592;45.460;9.240;2023-03-21T08:55:23;14.20;99.90
22852;DHT22;11592;45.460;9.240;2023-03-21T08:57:51;14.30;99.90
22852;DHT22;11592;45.460;9.240;2023-03-21T09:00:18;14.30;99.90
22852;DHT22;11592;45.460;9.240;2023-03-21T09:02:47;14.30;99.90
22852;DHT22;11592;45.460;9.240;2023-03-21T09:05:17;14.40;99.90
22852;DHT22;11592;45.460;9.240;2023-03-21T09:07:44;14.40;99.90
22852;DHT22;11592;45.460;9.240;2023-03-21T09:10:17;14.60;99.90
22852;DHT22;11592;45.460;9.240;2023-03-21T09:12:48;14.70;99.90
22852;DHT22;11592;45.460;9.240;2023-03-21T09:15:16;14.80;99.90
22852;DHT22;11592;45.460;9.240;2023-03-21T09:17:45;14.90;99.90
22852;DHT22;11592;45.460;9.240;2023-03-21T09:20:19;14.80;99.90
22852;DHT22;11592;45.460;9.240;2023-03-21T09:22:52;14.80;99.90
22852;DHT22;11592;45.460;9.240;2023-03-21T09:25:18;14.80;99.90
22852;DHT22;11592;45.460;9.240;2023-03-21T09:27:46;14.80;99.90
22852;DHT22;11592;45.460;9.240;2023-03-21T09:30:18;14.60;99.90
22852;DHT22;11592;45.460;9.240;2023-03-21T09:32:46;14.80;99.90
22852;DHT22;11592;45.460;9.240;2023-03-21T09:35:16;14.90;99.90
22852;DHT22;11592;45.460;9.240;2023-03-21T09:37:47;14.80;99.90
22852;DHT22;11592;45.460;9.240;2023-03-21T09:45:35;15.00;99.90
22852;DHT22;11592;45.460;9.240;2023-03-21T09:48:04;15.10;99.90
22852;DHT22;11592;45.460;9.240;2023-03-21T09:50:35;15.30;99.90
22852;DHT22;11592;45.460;9.240;2023-03-21T09:53:13;15.50;99.90
22852;DHT22;11592;45.460;9.240;2023-03-21T09:55:43;15.50;99.90
22852;DHT22;11592;45.460;9.240;2023-03-21T10:00:49;15.80;99.90
22852;DHT22;11592;45.460;9.240;2023-03-21T10:03:24;15.70;99.90
22852;DHT22;11592;45.460;9.240;2023-03-21T10:05:56;15.60;99.90
22852;DHT22;11592;45.460;9.240;2023-03-21T10:08:38;15.50;99.90
22852;DHT22;11592;45.460;9.240;2023-03-21T10:11:11;15.70;99.90
22852;DHT22;11592;45.460;9.240;2023-03-21T10:13:52;15.90;99.90
22852;DHT22;11592;45.460;9.240;2023-03-21T10:16:39;16.10;99.90
22852;DHT22;11592;45.460;9.240;2023-03-21T10:19:12;16.30;99.90
22852;DHT22;11592;45.460;9.240;2023-03-21T10:21:40;16.70;99.90
22852;DHT22;11592;45.460;9.240;2023-03-21T10:24:32;16.90;99.90
22852;DHT22;11592;45.460;9.240;2023-03-21T10:26:59;16.90;99.90
22852;DHT22;11592;45.460;9.240;2023-03-21T10:29:39;17.20;99.90
22852;DHT22;11592;45.460;9.240;2023-03-21T10:32:13;17.20;99.90
22852;DHT22;11592;45.460;9.240;2023-03-21T10:34:53;17.10;99.90
22852;DHT22;11592;45.460;9.240;2023-03-21T10:37:22;17.20;99.90
22852;DHT22;11592;45.460;9.240;2023-03-21T10:39:51;17.60;99.90
22852;DHT22;11592;45.460;9.240;2023-03-21T10:42:36;17.70;99.90
22852;DHT22;11592;45.460;9.240;2023-03-21T10:45:14;17.90;99.90
22852;DHT22;11592;45.460;9.240;2023-03-21T10:47:42;18.30;99.90
22852;DHT22;11592;45.460;9.240;2023-03-21T10:50:15;18.60;99.90
22852;DHT22;11592;45.460;9.240;2023-03-21T10:52:50;18.90;99.90
22852;DHT22;11592;45.460;9.240;2023-03-21T10:55:25;19.00;99.90
22852;DHT22;11592;45.460;9.240;2023-03-21T10:58:07;19.40;99.90
22852;DHT22;11592;45.460;9.240;2023-03-21T11:00:40;19.60;99.90
22852;DHT22;11592;45.460;9.240;2023-03-21T11:03:36;19.90;99.90
22852;DHT22;11592;45.460;9.240;2023-03-21T11:06:09;20.20;99.90
22852;DHT22;11592;45.460;9.240;2023-03-21T11:08:46;20.30;99.90
22852;DHT22;11592;45.460;9.240;2023-03-21T11:12:30;20.30;99.90
22852;DHT22;11592;45.460;9.240;2023-03-21T11:14:31;20.30;99.00
22852;DHT22;11592;45.460;9.240;2023-03-21T11:16:59;20.40;99.60
22852;DHT22;11592;45.460;9.240;2023-03-21T11:19:31;20.50;99.70
22852;DHT22;11592;45.460;9.240;2023-03-21T11:22:04;20.70;99.90
22852;DHT22;11592;45.460;9.240;2023-03-21T11:24:32;20.90;99.50
22852;DHT22;11592;45.460;9.240;2023-03-21T11:27:05;21.00;98.80
22852;DHT22;11592;45.460;9.240;2023-03-21T11:29:53;21.20;99.20
22852;DHT22;11592;45.460;9.240;2023-03-21T11:32:22;21.20;98.60
22852;DHT22;11592;45.460;9.240;2023-03-21T11:34:57;21.20;98.60
22852;DHT22;11592;45.460;9.240;2023-03-21T11:37:36;21.20;98.60
22852;DHT22;11592;45.460;9.240;2023-03-21T11:42:42;21.40;97.90
22852;DHT22;11592;45.460;9.240;2023-03-21T11:45:16;21.60;98.50
22852;DHT22;11592;45.460;9.240;2023-03-21T11:47:45;21.70;97.60
22852;DHT22;11592;45.460;9.240;2023-03-21T11:50:14;21.80;96.80
22852;DHT22;11592;45.460;9.240;2023-03-21T12:00:53;22.60;96.40
22852;DHT22;11592;45.460;9.240;2023-03-21T12:06:30;23.10;95.00
22852;DHT22;11592;45.460;9.240;2023-03-21T12:25:16;28.00;86.70
22852;DHT22;11592;45.460;9.240;2023-03-21T12:28:11;28.70;83.40
22852;DHT22;11592;45.460;9.240;2023-03-21T12:36:38;31.60;65.50
22852;DHT22;11592;45.460;9.240;2023-03-21T12:41:44;33.70;55.00
22852;DHT22;11592;45.460;9.240;2023-03-21T12:44:20;34.20;52.60
22852;DHT22;11592;45.460;9.240;2023-03-21T12:46:50;34.80;50.50
22852;DHT22;11592;45.460;9.240;2023-03-21T12:51:50;35.70;46.90
22852;DHT22;11592;45.460;9.240;2023-03-21T12:54:40;35.60;47.50
22852;DHT22;11592;45.460;9.240;2023-03-21T12:57:13;34.80;48.10
22852;DHT22;11592;45.460;9.240;2023-03-21T13:08:06;34.40;46.80
22852;DHT22;11592;45.460;9.240;2023-03-21T13:10:38;33.30;46.70
22852;DHT22;11592;45.460;9.240;2023-03-21T13:13:17;33.60;46.80
22852;DHT22;11592;45.460;9.240;2023-03-21T13:26:51;34.40;48.40
22852;DHT22;11592;45.460;9.240;2023-03-21T13:29:27;33.80;45.00
22852;DHT22;11592;45.460;9.240;2023-03-21T13:31:57;34.20;45.80
22852;DHT22;11592;45.460;9.240;2023-03-21T13:34:25;34.00;45.20
22852;DHT22;11592;45.460;9.240;2023-03-21T13:36:55;34.00;44.10
22852;DHT22;11592;45.460;9.240;2023-03-21T13:39:27;33.80;44.20
22852;DHT22;11592;45.460;9.240;2023-03-21T13:42:02;33.90;44.30
22852;DHT22;11592;45.460;9.240;2023-03-21T13:44:52;34.20;45.30
22852;DHT22;11592;45.460;9.240;2023-03-21T13:50:26;35.50;43.60
22852;DHT22;11592;45.460;9.240;2023-03-21T13:55:40;35.00;42.50
22852;DHT22;11592;45.460;9.240;2023-03-21T14:01:16;31.30;46.00
22852;DHT22;11592;45.460;9.240;2023-03-21T14:03:46;29.60;47.50
22852;DHT22;11592;45.460;9.240;2023-03-21T14:06:15;28.10;50.40
22852;DHT22;11592;45.460;9.240;2023-03-21T14:08:45;27.00;52.70
22852;DHT22;11592;45.460;9.240;2023-03-21T14:11:16;26.10;52.20
22852;DHT22;11592;45.460;9.240;2023-03-21T14:13:44;25.80;53.10
22852;DHT22;11592;45.460;9.240;2023-03-21T14:16:18;25.60;53.00
22852;DHT22;11592;45.460;9.240;2023-03-21T14:18:59;25.00;53.10
22852;DHT22;11592;45.460;9.240;2023-03-21T14:21:30;25.10;53.10
22852;DHT22;11592;45.460;9.240;2023-03-21T14:24:04;24.30;53.80
22852;DHT22;11592;45.460;9.240;2023-03-21T14:26:52;24.20;54.60
22852;DHT22;11592;45.460;9.240;2023-03-21T14:29:33;24.40;53.30
22852;DHT22;11592;45.460;9.240;2023-03-21T14:32:01;24.10;54.50
22852;DHT22;11592;45.460;9.240;2023-03-21T14:34:30;24.30;55.50
22852;DHT22;11592;45.460;9.240;2023-03-21T14:36:58;24.00;56.00
22852;DHT22;11592;45.460;9.240;2023-03-21T14:39:30;23.40;57.00
22852;DHT22;11592;45.460;9.240;2023-03-21T14:42:10;22.90;58.10
22852;DHT22;11592;45.460;9.240;2023-03-21T14:44:39;22.70;59.10
22852;DHT22;11592;45.460;9.240;2023-03-21T14:47:21;22.90;58.00
22852;DHT22;11592;45.460;9.240;2023-03-21T14:49:49;23.00;58.50
22852;DHT22;11592;45.460;9.240;2023-03-21T14:52:23;23.30;59.30
22852;DHT22;11592;45.460;9.240;2023-03-21T14:54:51;23.50;59.00
22852;DHT22;11592;45.460;9.240;2023-03-21T14:57:22;23.50;57.80
22852;DHT22;11592;45.460;9.240;2023-03-21T14:59:52;23.60;58.50
22852;DHT22;11592;45.460;9.240;2023-03-21T15:02:24;23.30;57.90
22852;DHT22;11592;45.460;9.240;2023-03-21T15:04:55;23.00;58.20
22852;DHT22;11592;45.460;9.240;2023-03-21T15:07:31;23.10;58.80
22852;DHT22;11592;45.460;9.240;2023-03-21T15:10:07;23.10;58.40
22852;DHT22;11592;45.460;9.240;2023-03-21T15:12:34;22.90;58.60
22852;DHT22;11592;45.460;9.240;2023-03-21T15:15:01;22.80;59.30
22852;DHT22;11592;45.460;9.240;2023-03-21T15:17:29;22.70;59.70
22852;DHT22;11592;45.460;9.240;2023-03-21T15:19:56;22.60;59.50
22852;DHT22;11592;45.460;9.240;2023-03-21T15:22:36;22.50;59.20
22852;DHT22;11592;45.460;9.240;2023-03-21T15:25:07;22.30;60.00
22852;DHT22;11592;45.460;9.240;2023-03-21T15:27:41;22.40;60.50
22852;DHT22;11592;45.460;9.240;2023-03-21T15:30:28;22.20;60.50
22852;DHT22;11592;45.460;9.240;2023-03-21T15:32:56;22.30;61.30
22852;DHT22;11592;45.460;9.240;2023-03-21T15:35:51;22.40;61.00
22852;DHT22;11592;45.460;9.240;2023-03-21T15:38:31;22.30;60.40
22852;DHT22;11592;45.460;9.240;2023-03-21T15:44:02;22.40;61.00
22852;DHT22;11592;45.460;9.240;2023-03-21T15:46:44;22.30;61.90
22852;DHT22;11592;45.460;9.240;2023-03-21T15:51:41;22.10;62.50
22852;DHT22;11592;45.460;9.240;2023-03-21T15:54:31;22.40;63.70
22852;DHT22;11592;45.460;9.240;2023-03-21T15:57:01;22.20;63.20
22852;DHT22;11592;45.460;9.240;2023-03-21T15:59:34;22.30;64.40
22852;DHT22;11592;45.460;9.240;2023-03-21T16:02:02;22.30;64.70
22852;DHT22;11592;45.460;9.240;2023-03-21T16:04:29;22.40;64.30
22852;DHT22;11592;45.460;9.240;2023-03-21T16:07:02;22.30;64.40
22852;DHT22;11592;45.460;9.240;2023-03-21T16:09:48;22.00;64.10
22852;DHT22;11592;45.460;9.240;2023-03-21T16:12:15;22.10;65.40
22852;DHT22;11592;45.460;9.240;2023-03-21T16:14:44;22.00;66.30
22852;DHT22;11592;45.460;9.240;2023-03-21T16:17:33;21.90;65.50
22852;DHT22;11592;45.460;9.240;2023-03-21T16:20:32;21.60;66.50
22852;DHT22;11592;45.460;9.240;2023-03-21T16:22:58;21.50;67.70
22852;DHT22;11592;45.460;9.240;2023-03-21T16:25:25;21.30;68.70
22852;DHT22;11592;45.460;9.240;2023-03-21T16:27:52;21.00;68.70
22852;DHT22;11592;45.460;9.240;2023-03-21T16:30:20;20.80;69.90
22852;DHT22;11592;45.460;9.240;2023-03-21T16:32:48;20.80;70.70
22852;DHT22;11592;45.460;9.240;2023-03-21T16:35:16;20.60;70.70
22852;DHT22;11592;45.460;9.240;2023-03-21T16:37:43;20.60;71.60
22852;DHT22;11592;45.460;9.240;2023-03-21T16:40:32;20.50;71.70
22852;DHT22;11592;45.460;9.240;2023-03-21T16:43:02;20.50;71.50
22852;DHT22;11592;45.460;9.240;2023-03-21T16:45:29;20.50;72.30
22852;DHT22;11592;45.460;9.240;2023-03-21T16:47:56;20.50;73.20
22852;DHT22;11592;45.460;9.240;2023-03-21T16:50:30;20.50;72.80
22852;DHT22;11592;45.460;9.240;2023-03-21T16:52:58;20.30;72.60
22852;DHT22;11592;45.460;9.240;2023-03-21T16:55:25;20.30;72.70
22852;DHT22;11592;45.460;9.240;2023-03-21T16:57:52;20.40;74.30
22852;DHT22;11592;45.460;9.240;2023-03-21T17:00:22;20.30;74.00
22852;DHT22;11592;45.460;9.240;2023-03-21T17:02:51;20.20;74.50
22852;DHT22;11592;45.460;9.240;2023-03-21T17:05:25;19.90;75.40
22852;DHT22;11592;45.460;9.240;2023-03-21T17:07:53;19.80;76.30
22852;DHT22;11592;45.460;9.240;2023-03-21T17:10:23;19.70;77.60
22852;DHT22;11592;45.460;9.240;2023-03-21T17:12:51;19.70;77.70
22852;DHT22;11592;45.460;9.240;2023-03-21T17:15:19;19.70;77.70
22852;DHT22;11592;45.460;9.240;2023-03-21T17:17:46;19.70;79.30
22852;DHT22;11592;45.460;9.240;2023-03-21T17:20:19;19.70;79.20
22852;DHT22;11592;45.460;9.240;2023-03-21T17:22:47;19.60;79.90
22852;DHT22;11592;45.460;9.240;2023-03-21T17:25:15;19.50;80.60
22852;DHT22;11592;45.460;9.240;2023-03-21T17:27:43;19.50;81.70
22852;DHT22;11592;45.460;9.240;2023-03-21T17:30:22;19.40;83.60
22852;DHT22;11592;45.460;9.240;2023-03-21T17:32:50;19.30;85.40
22852;DHT22;11592;45.460;9.240;2023-03-21T17:35:17;19.20;83.50
22852;DHT22;11592;45.460;9.240;2023-03-21T17:37:45;19.10;83.70
22852;DHT22;11592;45.460;9.240;2023-03-21T17:40:24;19.00;84.60
22852;DHT22;11592;45.460;9.240;2023-03-21T17:42:51;19.10;85.20
22852;DHT22;11592;45.460;9.240;2023-03-21T17:45:18;19.10;86.90
22852;DHT22;11592;45.460;9.240;2023-03-21T17:47:45;19.10;87.80
22852;DHT22;11592;45.460;9.240;2023-03-21T17:50:15;19.00;88.70
22852;DHT22;11592;45.460;9.240;2023-03-21T17:52:42;18.90;89.70
22852;DHT22;11592;45.460;9.240;2023-03-21T17:55:09;18.90;90.30
22852;DHT22;11592;45.460;9.240;2023-03-21T17:57:36;18.70;89.00
22852;DHT22;11592;45.460;9.240;2023-03-21T18:00:06;18.60;90.60
22852;DHT22;11592;45.460;9.240;2023-03-21T18:02:38;18.40;90.00